Terminal Aerodrome Forecast
Issued by NWS

Home | Current Version | Previous Version | Text Only | Print | Product List | Glossary On
Versions: 1 2 3 4 5 6 7 8 9 10 11
646
FTUS46 KLOX 121731
TAFPMD
TAF
KPMD 121731Z 1218/1318 VRB05KT P6SM BKN250
     FM130200 23007KT P6SM BKN250=

USA.gov is the U.S. government's official web portal to all federal, state and local government web resources and services.